Etters, Pennsylvania
Current Conditions -  °F | °C
As of 4:56 AM on Monday 26 Jan 2015 (Local Time) from KMDT Reporting Station
Light Snow Light Snow  
Wind Chill: 15°   Ceiling: 1300
Heat Index: 25°   Visibility: 4mi
Dew Point: 21°   Wind: 10mph
Humidity: 85%   Direction: 70°ENE
Pressure: 29.88"   Gusts: NA
Location:  40.15°N, 76.79°W
Report Text: KMDT 260956Z 07009KT 4SM -SN OVC013 M04/M06 A2988 RMK AO2 SLP122 P0000 T10391061
Loading
Personal Weather Stations






























Interactive Weather Map New forecast layout! Learn more

10-Day Weather Forecast

Advertisements
Track Severe Weather on mobile